Time;durP1;ratioP1;P1;durP2;ratioP2;P2;SDS_P1;SDS_P2;PMS_P1;PMS_P2;Temp;Humidity;BMP_temperature;BMP_pressure;BME280_temperature;BME280_humidity;BME280_pressure;Samples;Min_cycle;Max_cycle;Signal;HPM_P1;HPM_P2
2021/09/13 00:00:23;;;;;;;2.00;1.90;;;;;;;;;;5111475;28;20649;-62
2021/09/13 00:02:51;;;;;;;2.60;2.23;;;;;;;;;;5108943;28;20205;-62
2021/09/13 00:05:22;;;;;;;5.43;2.93;;;;;;;;;;5111511;28;20218;-63
2021/09/13 00:07:50;;;;;;;2.57;2.10;;;;;;;;;;5111814;28;20257;-63
2021/09/13 00:10:20;;;;;;;4.80;2.17;;;;;;;;;;5112331;28;20217;-63
2021/09/13 00:12:48;;;;;;;3.17;2.87;;;;;;;;;;5103667;28;20235;-62
2021/09/13 00:15:16;;;;;;;4.30;2.60;;;;;;;;;;5117359;28;20223;-63
2021/09/13 00:17:44;;;;;;;3.03;2.83;;;;;;;;;;5104581;28;20562;-63
2021/09/13 00:20:12;;;;;;;4.40;2.67;;;;;;;;;;5104440;28;20276;-63
2021/09/13 00:22:42;;;;;;;3.43;2.70;;;;;;;;;;5115386;28;20698;-62
2021/09/13 00:25:10;;;;;;;3.83;2.90;;;;;;;;;;5118023;28;20324;-63
2021/09/13 00:27:38;;;;;;;4.37;3.13;;;;;;;;;;5111083;28;20212;-63
2021/09/13 00:30:07;;;;;;;3.87;2.80;;;;;;;;;;5105299;28;20714;-63
2021/09/13 00:32:35;;;;;;;3.33;2.87;;;;;;;;;;5117036;28;20205;-63
2021/09/13 00:35:03;;;;;;;4.67;2.63;;;;;;;;;;5104361;28;20228;-63
2021/09/13 00:37:31;;;;;;;4.43;2.77;;;;;;;;;;5107015;28;20564;-62
2021/09/13 00:40:00;;;;;;;3.43;2.40;;;;;;;;;;5118277;28;20648;-63
2021/09/13 00:42:28;;;;;;;3.57;2.43;;;;;;;;;;5117372;28;20250;-63
2021/09/13 00:44:57;;;;;;;3.07;2.60;;;;;;;;;;5118222;28;20225;-63
2021/09/13 00:47:25;;;;;;;4.27;2.60;;;;;;;;;;5104583;28;20208;-62
2021/09/13 00:49:54;;;;;;;3.97;2.83;;;;;;;;;;5114262;28;20217;-62
2021/09/13 00:52:22;;;;;;;3.90;2.80;;;;;;;;;;5118157;28;20206;-63
2021/09/13 00:54:50;;;;;;;4.87;2.70;;;;;;;;;;5106256;28;20582;-63
2021/09/13 00:57:19;;;;;;;3.43;2.83;;;;;;;;;;5115393;28;20288;-63
2021/09/13 00:59:47;;;;;;;5.30;2.80;;;;;;;;;;5111306;28;20241;-62
2021/09/13 01:02:15;;;;;;;3.00;2.70;;;;;;;;;;5110526;28;20201;-62
2021/09/13 01:04:44;;;;;;;4.10;2.97;;;;;;;;;;5117723;28;20267;-62
2021/09/13 01:07:13;;;;;;;3.90;3.20;;;;;;;;;;5117575;28;20201;-62
2021/09/13 01:09:41;;;;;;;3.63;2.73;;;;;;;;;;5121908;28;20221;-63
2021/09/13 01:12:09;;;;;;;6.20;3.07;;;;;;;;;;5107187;28;20551;-63
2021/09/13 01:14:42;;;;;;;6.27;3.13;;;;;;;;;;5120152;28;20224;-62
2021/09/13 01:17:10;;;;;;;10.20;4.07;;;;;;;;;;5124210;27;20279;-62
2021/09/13 01:19:38;;;;;;;7.27;4.33;;;;;;;;;;5128594;27;20208;-62
2021/09/13 01:22:07;;;;;;;8.27;4.90;;;;;;;;;;5124761;27;20204;-62
2021/09/13 01:24:36;;;;;;;9.00;5.27;;;;;;;;;;5108773;28;20241;-62
2021/09/13 01:27:05;;;;;;;8.53;4.57;;;;;;;;;;5120385;28;20568;-62
2021/09/13 01:29:33;;;;;;;5.87;3.77;;;;;;;;;;5107325;27;20203;-62
2021/09/13 01:32:01;;;;;;;5.57;3.37;;;;;;;;;;5111042;28;20223;-62
2021/09/13 01:34:29;;;;;;;3.87;2.93;;;;;;;;;;5116212;28;20225;-62
2021/09/13 01:36:57;;;;;;;4.03;3.17;;;;;;;;;;5109314;28;20207;-62
2021/09/13 01:39:26;;;;;;;3.73;2.80;;;;;;;;;;5119760;28;20206;-62
2021/09/13 01:41:55;;;;;;;4.00;2.90;;;;;;;;;;5120669;28;20209;-62
2021/09/13 01:44:23;;;;;;;2.87;2.63;;;;;;;;;;5120872;28;20225;-62
2021/09/13 01:46:51;;;;;;;3.93;2.77;;;;;;;;;;5108006;28;20207;-61
2021/09/13 01:49:19;;;;;;;2.80;2.50;;;;;;;;;;5114170;28;20214;-61
2021/09/13 01:51:47;;;;;;;3.00;2.70;;;;;;;;;;5119474;28;20246;-62
2021/09/13 01:54:15;;;;;;;4.27;2.80;;;;;;;;;;5112875;28;20692;-63
2021/09/13 01:56:43;;;;;;;3.53;2.67;;;;;;;;;;5101790;28;20742;-62
2021/09/13 01:59:12;;;;;;;2.80;2.40;;;;;;;;;;5113901;28;20725;-62
2021/09/13 02:01:40;;;;;;;3.80;3.00;;;;;;;;;;5109110;28;20199;-63
2021/09/13 02:04:10;;;;;;;4.90;3.10;;;;;;;;;;5121306;28;20311;-62
2021/09/13 02:06:38;;;;;;;5.53;3.30;;;;;;;;;;5120274;28;20200;-62
2021/09/13 02:09:06;;;;;;;7.20;3.40;;;;;;;;;;5119140;28;20683;-62
2021/09/13 02:11:34;;;;;;;3.37;3.07;;;;;;;;;;5107317;28;20221;-62
2021/09/13 02:14:01;;;;;;;4.87;3.10;;;;;;;;;;5104388;28;20239;-62
2021/09/13 02:16:31;;;;;;;4.37;3.03;;;;;;;;;;5114771;28;20284;-62
2021/09/13 02:18:59;;;;;;;3.40;2.93;;;;;;;;;;5116929;28;20205;-62
2021/09/13 02:21:27;;;;;;;4.47;3.17;;;;;;;;;;5111273;28;20212;-62
2021/09/13 02:23:55;;;;;;;3.10;2.73;;;;;;;;;;5120046;28;20232;-62
2021/09/13 02:26:23;;;;;;;3.13;2.83;;;;;;;;;;5120371;28;20236;-62
2021/09/13 02:28:51;;;;;;;5.47;3.30;;;;;;;;;;5108298;28;20202;-62
2021/09/13 02:31:19;;;;;;;4.07;3.17;;;;;;;;;;5116342;28;20221;-64
2021/09/13 02:33:49;;;;;;;6.17;3.77;;;;;;;;;;5112396;28;20217;-63
2021/09/13 02:36:16;;;;;;;4.57;2.93;;;;;;;;;;5120436;28;20204;-64
2021/09/13 02:38:44;;;;;;;4.80;2.83;;;;;;;;;;5119478;28;20205;-64
2021/09/13 02:41:12;;;;;;;3.03;2.33;;;;;;;;;;5106590;28;20276;-64
2021/09/13 02:43:40;;;;;;;3.43;3.00;;;;;;;;;;5120692;28;20293;-64
2021/09/13 02:46:08;;;;;;;4.00;2.83;;;;;;;;;;5119167;28;20209;-64
2021/09/13 02:48:37;;;;;;;3.37;3.03;;;;;;;;;;5118342;28;20687;-64
2021/09/13 02:51:06;;;;;;;3.90;3.03;;;;;;;;;;5115105;28;20662;-63
2021/09/13 02:53:35;;;;;;;6.13;2.90;;;;;;;;;;5111795;28;20205;-62
2021/09/13 02:56:03;;;;;;;4.50;3.00;;;;;;;;;;5118758;28;20312;-62
2021/09/13 02:58:31;;;;;;;3.13;2.80;;;;;;;;;;5118444;28;20236;-62
2021/09/13 03:00:59;;;;;;;4.37;3.17;;;;;;;;;;5107545;28;20275;-62
2021/09/13 03:03:28;;;;;;;6.40;3.07;;;;;;;;;;5106054;28;20208;-62
2021/09/13 03:05:56;;;;;;;7.07;2.47;;;;;;;;;;5119972;28;20205;-62
2021/09/13 03:08:25;;;;;;;2.63;2.43;;;;;;;;;;5105781;28;20201;-62
2021/09/13 03:10:53;;;;;;;3.67;3.30;;;;;;;;;;5117204;28;20293;-61
2021/09/13 03:13:21;;;;;;;3.37;2.80;;;;;;;;;;5112529;28;20223;-61
2021/09/13 03:15:49;;;;;;;2.83;2.40;;;;;;;;;;5117538;28;20235;-61
2021/09/13 03:18:17;;;;;;;3.43;2.50;;;;;;;;;;5116452;28;20234;-61
2021/09/13 03:20:45;;;;;;;2.97;2.70;;;;;;;;;;5103437;28;20692;-61
2021/09/13 03:23:13;;;;;;;5.63;3.30;;;;;;;;;;5119910;28;20211;-61
2021/09/13 03:25:43;;;;;;;4.27;2.77;;;;;;;;;;5115717;28;20244;-61
2021/09/13 03:28:11;;;;;;;3.77;2.90;;;;;;;;;;5118290;28;20564;-61
2021/09/13 03:30:39;;;;;;;3.70;3.27;;;;;;;;;;5117473;28;20227;-62
2021/09/13 03:33:07;;;;;;;4.23;2.90;;;;;;;;;;5107196;28;20229;-61
2021/09/13 03:35:35;;;;;;;3.43;3.13;;;;;;;;;;5118491;28;20221;-63
2021/09/13 03:38:03;;;;;;;4.13;3.37;;;;;;;;;;5119296;28;20564;-62
2021/09/13 03:40:31;;;;;;;5.93;3.13;;;;;;;;;;5109958;28;20619;-63
2021/09/13 03:43:00;;;;;;;4.23;2.87;;;;;;;;;;5114492;28;20210;-62
2021/09/13 03:45:28;;;;;;;5.50;3.23;;;;;;;;;;5116179;28;20239;-61
2021/09/13 03:47:56;;;;;;;4.00;3.60;;;;;;;;;;5109951;28;20747;-63
2021/09/13 03:50:24;;;;;;;3.47;3.17;;;;;;;;;;5118936;28;20204;-61
2021/09/13 03:52:52;;;;;;;4.07;3.20;;;;;;;;;;5118024;28;20231;-63
2021/09/13 03:55:20;;;;;;;4.27;3.70;;;;;;;;;;5118748;28;20575;-63
2021/09/13 03:57:48;;;;;;;4.60;3.20;;;;;;;;;;5103226;28;20612;-63
2021/09/13 04:00:18;;;;;;;5.80;3.47;;;;;;;;;;5108965;28;20688;-63
2021/09/13 04:02:48;;;;;;;6.40;3.53;;;;;;;;;;5116928;28;20208;-63
2021/09/13 04:05:20;;;;;;;6.47;3.10;;;;;;;;;;5118686;28;20648;-63
2021/09/13 04:10:52;;;;;;;6.03;3.60;;;;;;;;;;5092851;27;20563;-64
2021/09/13 04:13:20;;;;;;;5.63;3.30;;;;;;;;;;5073531;28;20220;-65
2021/09/13 04:15:48;;;;;;;4.43;3.63;;;;;;;;;;5052078;28;20228;-65
2021/09/13 04:18:16;;;;;;;5.43;2.90;;;;;;;;;;5054632;28;20289;-64
2021/09/13 04:20:44;;;;;;;5.80;2.70;;;;;;;;;;5054088;28;20666;-63
2021/09/13 04:23:12;;;;;;;8.37;3.60;;;;;;;;;;5053921;28;20573;-62
2021/09/13 04:25:40;;;;;;;4.80;2.90;;;;;;;;;;5047965;28;20219;-62
2021/09/13 04:28:09;;;;;;;3.87;3.07;;;;;;;;;;5053076;28;20221;-63
2021/09/13 04:30:37;;;;;;;5.93;3.27;;;;;;;;;;5041656;28;20797;-63
2021/09/13 04:33:05;;;;;;;5.67;3.60;;;;;;;;;;5054746;28;20213;-62
2021/09/13 04:35:33;;;;;;;4.13;3.37;;;;;;;;;;5053996;28;20227;-62
2021/09/13 04:38:01;;;;;;;5.00;3.07;;;;;;;;;;5054821;28;20294;-62
2021/09/13 04:40:29;;;;;;;4.30;3.10;;;;;;;;;;5053064;28;20206;-63
2021/09/13 04:42:57;;;;;;;3.50;3.20;;;;;;;;;;5054284;28;20207;-62
2021/09/13 04:45:27;;;;;;;5.90;3.43;;;;;;;;;;5052772;28;20313;-63
2021/09/13 04:47:55;;;;;;;6.13;3.13;;;;;;;;;;5053556;28;20199;-62
2021/09/13 04:50:23;;;;;;;4.67;3.17;;;;;;;;;;5054245;28;20237;-62
2021/09/13 04:52:51;;;;;;;4.17;2.93;;;;;;;;;;5053785;28;20209;-63
2021/09/13 04:55:19;;;;;;;3.30;3.00;;;;;;;;;;5053184;28;20237;-62
2021/09/13 04:57:47;;;;;;;6.17;3.03;;;;;;;;;;5052705;28;20223;-64
2021/09/13 05:00:16;;;;;;;3.00;2.80;;;;;;;;;;5053268;28;20229;-64
2021/09/13 05:02:46;;;;;;;3.57;2.97;;;;;;;;;;5053569;28;20208;-64
2021/09/13 05:05:14;;;;;;;3.50;2.80;;;;;;;;;;5053520;28;20594;-64
2021/09/13 05:07:42;;;;;;;3.33;2.83;;;;;;;;;;5052771;28;20209;-63
2021/09/13 05:10:10;;;;;;;5.03;2.77;;;;;;;;;;5041293;28;20243;-64
2021/09/13 05:12:38;;;;;;;2.73;2.40;;;;;;;;;;5053235;28;20209;-63
2021/09/13 05:15:07;;;;;;;2.90;2.53;;;;;;;;;;5053920;28;20231;-64
2021/09/13 05:17:35;;;;;;;3.03;2.73;;;;;;;;;;5052508;28;20207;-64
2021/09/13 05:20:05;;;;;;;5.77;2.90;;;;;;;;;;5050002;28;20203;-64
2021/09/13 05:22:33;;;;;;;3.33;3.03;;;;;;;;;;5039186;28;20218;-64
2021/09/13 05:25:01;;;;;;;4.90;3.20;;;;;;;;;;5033764;28;20315;-64
2021/09/13 05:27:29;;;;;;;4.33;2.77;;;;;;;;;;5039365;28;20243;-64
2021/09/13 05:29:57;;;;;;;4.70;2.73;;;;;;;;;;5039144;28;20673;-64
2021/09/13 05:32:25;;;;;;;4.07;2.83;;;;;;;;;;5037808;28;20204;-64
2021/09/13 05:34:53;;;;;;;4.57;3.40;;;;;;;;;;5036753;28;20227;-64
2021/09/13 05:37:23;;;;;;;8.77;4.63;;;;;;;;;;5032317;28;20203;-64
2021/09/13 05:39:51;;;;;;;3.77;3.03;;;;;;;;;;5038382;28;20938;-64
2021/09/13 05:42:18;;;;;;;4.00;3.60;;;;;;;;;;5037306;28;20214;-64
2021/09/13 05:44:46;;;;;;;7.03;4.20;;;;;;;;;;5038866;28;20310;-63
2021/09/13 05:47:14;;;;;;;7.63;4.57;;;;;;;;;;5029695;28;20694;-62
2021/09/13 05:49:42;;;;;;;4.70;3.50;;;;;;;;;;5037245;28;20296;-64
2021/09/13 05:52:10;;;;;;;3.87;3.10;;;;;;;;;;5038658;28;20212;-64
2021/09/13 05:54:40;;;;;;;4.63;3.80;;;;;;;;;;5038222;28;20223;-62
2021/09/13 05:57:08;;;;;;;7.53;3.20;;;;;;;;;;5038938;28;20215;-62
2021/09/13 05:59:36;;;;;;;6.20;3.10;;;;;;;;;;5037467;28;20666;-62
2021/09/13 06:02:04;;;;;;;4.03;2.87;;;;;;;;;;5038409;28;20212;-62
2021/09/13 06:04:33;;;;;;;3.40;3.10;;;;;;;;;;5038757;28;20730;-63
2021/09/13 06:07:01;;;;;;;6.73;3.03;;;;;;;;;;5038077;28;20221;-62
2021/09/13 06:09:29;;;;;;;4.40;3.13;;;;;;;;;;5038417;28;20243;-62
2021/09/13 06:11:59;;;;;;;3.90;3.13;;;;;;;;;;5034892;28;20204;-62
2021/09/13 06:14:27;;;;;;;4.07;3.50;;;;;;;;;;5038496;28;20231;-62
2021/09/13 06:16:55;;;;;;;5.67;3.10;;;;;;;;;;5037366;28;20207;-62
2021/09/13 06:19:23;;;;;;;4.73;3.97;;;;;;;;;;5031368;28;20207;-63
2021/09/13 06:21:51;;;;;;;4.03;3.63;;;;;;;;;;5037902;28;20291;-63
2021/09/13 06:24:19;;;;;;;4.13;3.17;;;;;;;;;;5038475;28;20283;-63
2021/09/13 06:26:47;;;;;;;7.07;3.33;;;;;;;;;;5037441;28;20217;-64
2021/09/13 06:29:16;;;;;;;4.93;3.30;;;;;;;;;;5037083;28;20582;-62
2021/09/13 06:31:44;;;;;;;4.77;3.60;;;;;;;;;;5036830;28;20224;-63
2021/09/13 06:34:15;;;;;;;5.57;3.50;;;;;;;;;;5037903;28;20231;-62
2021/09/13 06:36:44;;;;;;;6.93;4.07;;;;;;;;;;5036218;28;20290;-63
2021/09/13 06:39:12;;;;;;;8.30;3.80;;;;;;;;;;5038268;28;20572;-62
2021/09/13 06:41:40;;;;;;;4.90;2.93;;;;;;;;;;5035975;28;20569;-63
2021/09/13 06:44:08;;;;;;;6.30;3.43;;;;;;;;;;5038405;28;20344;-62
2021/09/13 06:46:45;;;;;;;3.63;3.30;;;;;;;;;;5037450;28;20199;-62
2021/09/13 06:49:13;;;;;;;5.17;2.67;;;;;;;;;;5038331;28;20741;-60
2021/09/13 06:51:41;;;;;;;3.17;2.87;;;;;;;;;;5037889;28;20227;-62
2021/09/13 06:54:09;;;;;;;5.77;3.83;;;;;;;;;;5037451;28;20223;-61
2021/09/13 06:56:37;;;;;;;5.10;3.53;;;;;;;;;;5034946;28;20206;-61
2021/09/13 06:59:05;;;;;;;7.40;3.07;;;;;;;;;;5037083;28;20608;-61
2021/09/13 07:01:33;;;;;;;7.97;3.60;;;;;;;;;;5035492;28;20205;-62
2021/09/13 07:04:03;;;;;;;4.93;3.50;;;;;;;;;;5037030;28;20216;-62
2021/09/13 07:06:31;;;;;;;5.70;3.77;;;;;;;;;;5036526;28;20207;-62
2021/09/13 07:08:59;;;;;;;6.03;3.63;;;;;;;;;;5036052;28;20259;-60
2021/09/13 07:11:27;;;;;;;10.93;4.53;;;;;;;;;;5034666;28;20787;-59
2021/09/13 07:13:56;;;;;;;6.07;4.97;;;;;;;;;;5036069;28;20306;-61
2021/09/13 07:16:24;;;;;;;4.80;4.20;;;;;;;;;;5034745;28;20207;-60
2021/09/13 07:18:52;;;;;;;7.77;3.87;;;;;;;;;;5037011;28;20290;-62
2021/09/13 07:21:21;;;;;;;5.00;4.10;;;;;;;;;;5030949;28;20197;-60
2021/09/13 07:23:49;;;;;;;7.30;4.03;;;;;;;;;;5032388;28;20232;-62
2021/09/13 07:26:17;;;;;;;9.13;4.13;;;;;;;;;;5036443;28;20283;-62
2021/09/13 07:28:45;;;;;;;8.27;3.60;;;;;;;;;;5037140;28;20222;-62
2021/09/13 07:31:13;;;;;;;6.20;3.30;;;;;;;;;;5032964;28;20231;-62
2021/09/13 07:33:41;;;;;;;3.67;3.00;;;;;;;;;;5037408;28;20210;-61
2021/09/13 07:36:09;;;;;;;4.90;3.23;;;;;;;;;;5036607;28;20206;-61
2021/09/13 07:38:39;;;;;;;13.80;4.60;;;;;;;;;;5036455;28;20205;-61
2021/09/13 07:41:07;;;;;;;6.47;3.63;;;;;;;;;;5036817;28;20286;-62
2021/09/13 07:43:35;;;;;;;10.43;3.57;;;;;;;;;;5036604;28;20212;-62
2021/09/13 07:46:03;;;;;;;8.40;3.90;;;;;;;;;;5036532;28;20271;-62
2021/09/13 07:48:31;;;;;;;5.60;3.47;;;;;;;;;;5036825;28;20209;-62
2021/09/13 07:50:59;;;;;;;5.03;2.57;;;;;;;;;;5034110;28;20229;-61
2021/09/13 07:53:27;;;;;;;3.03;2.27;;;;;;;;;;5036114;28;20222;-61
2021/09/13 07:55:56;;;;;;;2.77;2.53;;;;;;;;;;5034561;28;20278;-62
2021/09/13 07:58:24;;;;;;;4.30;2.77;;;;;;;;;;5036422;28;20204;-64
2021/09/13 08:00:52;;;;;;;2.97;2.77;;;;;;;;;;5035894;28;20205;-62
2021/09/13 08:03:20;;;;;;;4.67;2.57;;;;;;;;;;5036714;28;20246;-62
2021/09/13 08:05:49;;;;;;;6.60;2.70;;;;;;;;;;5031681;28;20226;-62
2021/09/13 08:08:17;;;;;;;5.47;2.47;;;;;;;;;;5036794;28;20297;-63
2021/09/13 08:10:45;;;;;;;3.77;2.70;;;;;;;;;;5036002;28;20236;-61
2021/09/13 08:13:14;;;;;;;2.97;2.60;;;;;;;;;;5034774;28;20217;-60
2021/09/13 08:15:42;;;;;;;5.63;2.90;;;;;;;;;;5033559;28;20721;-61
2021/09/13 08:18:10;;;;;;;5.17;2.50;;;;;;;;;;5035350;28;20289;-62
2021/09/13 08:20:38;;;;;;;3.20;2.70;;;;;;;;;;5033537;28;20206;-63
2021/09/13 08:23:06;;;;;;;27.93;7.93;;;;;;;;;;5036562;28;20220;-62
2021/09/13 08:25:34;;;;;;;19.77;5.33;;;;;;;;;;5035935;28;20281;-61
2021/09/13 08:28:02;;;;;;;22.47;5.83;;;;;;;;;;5036856;28;20206;-62
2021/09/13 08:30:31;;;;;;;16.47;4.20;;;;;;;;;;5036221;28;20207;-62
2021/09/13 08:33:00;;;;;;;8.73;2.90;;;;;;;;;;5035257;28;20197;-62
2021/09/13 08:35:28;;;;;;;5.83;2.73;;;;;;;;;;5035993;28;20225;-62
2021/09/13 08:37:56;;;;;;;3.07;2.37;;;;;;;;;;5035950;28;20637;-62
2021/09/13 08:40:24;;;;;;;8.47;3.07;;;;;;;;;;5035141;28;20647;-62
2021/09/13 08:42:52;;;;;;;2.80;2.50;;;;;;;;;;5034900;28;20560;-60
2021/09/13 08:45:25;;;;;;;3.67;2.27;;;;;;;;;;5035971;28;20310;-61
2021/09/13 08:48:03;;;;;;;4.53;2.43;;;;;;;;;;5036021;28;20210;-62
2021/09/13 08:50:39;;;;;;;3.80;2.50;;;;;;;;;;5035604;28;20214;-62
2021/09/13 08:53:09;;;;;;;2.20;2.00;;;;;;;;;;5031605;28;20233;-62
2021/09/13 08:55:37;;;;;;;3.83;2.53;;;;;;;;;;5032840;28;20321;-62
2021/09/13 08:58:05;;;;;;;3.20;2.33;;;;;;;;;;5040004;28;20211;-61
2021/09/13 09:00:34;;;;;;;3.07;2.50;;;;;;;;;;5038260;28;20267;-61
2021/09/13 09:03:05;;;;;;;3.90;2.03;;;;;;;;;;5036800;28;20247;-61
2021/09/13 09:05:39;;;;;;;3.10;2.43;;;;;;;;;;5037596;28;20227;-62
2021/09/13 09:08:08;;;;;;;6.83;2.63;;;;;;;;;;5039509;28;20219;-61
2021/09/13 09:10:36;;;;;;;5.30;2.97;;;;;;;;;;5035304;28;20244;-61
2021/09/13 09:13:08;;;;;;;2.80;2.53;;;;;;;;;;5034991;28;20306;-61
2021/09/13 09:15:37;;;;;;;2.97;2.67;;;;;;;;;;5039661;28;20316;-61
2021/09/13 09:18:06;;;;;;;5.40;2.23;;;;;;;;;;5040020;28;20240;-61
2021/09/13 09:20:41;;;;;;;4.10;2.60;;;;;;;;;;5037628;28;20258;-61
2021/09/13 09:23:10;;;;;;;4.20;2.27;;;;;;;;;;5039768;28;20648;-61
2021/09/13 09:25:39;;;;;;;2.60;2.10;;;;;;;;;;5034940;28;21240;-61
2021/09/13 09:28:11;;;;;;;3.60;2.37;;;;;;;;;;5039620;28;20656;-61
2021/09/13 09:30:39;;;;;;;3.87;2.80;;;;;;;;;;5035634;28;20215;-61
2021/09/13 09:33:10;;;;;;;4.13;2.57;;;;;;;;;;5038923;28;20256;-61
2021/09/13 09:35:42;;;;;;;4.77;2.50;;;;;;;;;;5035253;28;20229;-61
2021/09/13 09:38:26;;;;;;;4.97;3.30;;;;;;;;;;5037763;28;20200;-61
2021/09/13 09:41:04;;;;;;;5.13;2.60;;;;;;;;;;5037769;28;20209;-61
2021/09/13 09:43:47;;;;;;;2.47;2.27;;;;;;;;;;5038539;28;20565;-61
2021/09/13 09:46:15;;;;;;;3.13;2.37;;;;;;;;;;5034906;28;20203;-60
2021/09/13 09:48:45;;;;;;;2.73;2.30;;;;;;;;;;5039176;28;20214;-61
2021/09/13 09:51:25;;;;;;;2.03;1.93;;;;;;;;;;5038327;28;20200;-61
2021/09/13 09:53:53;;;;;;;4.40;2.23;;;;;;;;;;5038508;28;20241;-62
2021/09/13 09:56:21;;;;;;;2.80;2.60;;;;;;;;;;5040268;28;20287;-62
2021/09/13 09:59:00;;;;;;;2.50;2.30;;;;;;;;;;5039664;28;20210;-62
2021/09/13 10:01:32;;;;;;;5.40;2.37;;;;;;;;;;5038520;28;20732;-61
2021/09/13 10:04:22;;;;;;;8.27;2.70;;;;;;;;;;5038826;28;20233;-61
2021/09/13 10:06:51;;;;;;;3.80;2.43;;;;;;;;;;5038250;28;20394;-62
2021/09/13 10:09:19;;;;;;;3.47;3.17;;;;;;;;;;5038263;28;20617;-62
2021/09/13 10:11:48;;;;;;;3.77;3.40;;;;;;;;;;5036380;28;20236;-62
2021/09/13 10:14:17;;;;;;;3.80;3.17;;;;;;;;;;5036576;28;20287;-62
2021/09/13 10:16:47;;;;;;;4.87;3.33;;;;;;;;;;5036510;28;20243;-62
2021/09/13 10:19:18;;;;;;;2.60;2.30;;;;;;;;;;5036666;28;20270;-62
2021/09/13 10:21:48;;;;;;;2.90;2.20;;;;;;;;;;5036547;28;20294;-62
2021/09/13 10:24:18;;;;;;;3.53;2.87;;;;;;;;;;5036151;28;20219;-62
2021/09/13 10:26:47;;;;;;;5.37;3.27;;;;;;;;;;5037085;28;20215;-63
2021/09/13 10:29:16;;;;;;;3.20;2.20;;;;;;;;;;5038533;28;20286;-63
2021/09/13 10:32:04;;;;;;;2.40;2.17;;;;;;;;;;5035697;28;20297;-63
2021/09/13 10:34:33;;;;;;;3.37;2.37;;;;;;;;;;5037940;28;20226;-63
2021/09/13 10:37:11;;;;;;;4.23;2.03;;;;;;;;;;5037831;28;20242;-63
2021/09/13 10:39:49;;;;;;;2.53;2.07;;;;;;;;;;5038325;28;20207;-63
2021/09/13 10:42:30;;;;;;;3.80;2.00;;;;;;;;;;5036890;28;20227;-63
2021/09/13 10:45:05;;;;;;;5.40;2.03;;;;;;;;;;5038135;28;20244;-63
2021/09/13 10:47:33;;;;;;;3.80;2.37;;;;;;;;;;5034117;28;20203;-63
2021/09/13 10:50:15;;;;;;;2.80;2.20;;;;;;;;;;5032675;28;20692;-63
2021/09/13 10:52:44;;;;;;;2.43;2.23;;;;;;;;;;5033363;28;20229;-63
2021/09/13 10:55:23;;;;;;;2.63;2.30;;;;;;;;;;5037322;28;20719;-63
2021/09/13 10:58:02;;;;;;;2.40;1.97;;;;;;;;;;5036710;28;20207;-62
2021/09/13 11:00:50;;;;;;;2.07;1.90;;;;;;;;;;5037431;28;20207;-63
2021/09/13 11:03:32;;;;;;;3.30;2.80;;;;;;;;;;5032679;28;20727;-63
2021/09/13 11:06:04;;;;;;;3.20;2.40;;;;;;;;;;5037228;28;20203;-63
2021/09/13 11:08:37;;;;;;;2.50;2.30;;;;;;;;;;5037561;28;20206;-63
2021/09/13 11:11:08;;;;;;;6.63;2.50;;;;;;;;;;5036423;28;20288;-63
2021/09/13 11:13:36;;;;;;;2.60;2.40;;;;;;;;;;5037249;28;20244;-63
2021/09/13 11:16:05;;;;;;;2.40;1.73;;;;;;;;;;5037097;28;20204;-63
2021/09/13 11:18:33;;;;;;;3.33;2.60;;;;;;;;;;5034404;28;20568;-63
2021/09/13 11:21:14;;;;;;;3.43;1.90;;;;;;;;;;5036960;28;20198;-63
2021/09/13 11:23:43;;;;;;;2.57;2.07;;;;;;;;;;5036999;28;20213;-63
2021/09/13 11:26:11;;;;;;;2.90;1.93;;;;;;;;;;5035945;28;20567;-63
2021/09/13 11:28:55;;;;;;;2.23;1.90;;;;;;;;;;5036542;28;20210;-63
2021/09/13 11:31:31;;;;;;;4.57;2.20;;;;;;;;;;5036806;28;20210;-63
2021/09/13 11:33:59;;;;;;;4.27;2.10;;;;;;;;;;5037237;28;20287;-64
2021/09/13 11:36:28;;;;;;;5.30;1.83;;;;;;;;;;5030916;28;20208;-67
2021/09/13 11:39:02;;;;;;;4.27;2.10;;;;;;;;;;5036842;28;20238;-63
2021/09/13 11:41:30;;;;;;;2.10;1.90;;;;;;;;;;5028628;28;20206;-64
2021/09/13 11:43:59;;;;;;;2.70;1.87;;;;;;;;;;5036844;28;20308;-63
2021/09/13 11:46:27;;;;;;;3.63;2.17;;;;;;;;;;5027605;28;20202;-63
2021/09/13 11:48:55;;;;;;;2.53;1.90;;;;;;;;;;5035492;28;20274;-64
2021/09/13 11:51:23;;;;;;;2.63;2.43;;;;;;;;;;5035597;28;20205;-64
2021/09/13 11:54:08;;;;;;;2.73;2.50;;;;;;;;;;5036606;28;20770;-64
2021/09/13 11:56:36;;;;;;;3.17;2.20;;;;;;;;;;5033596;28;20203;-64
2021/09/13 11:59:25;;;;;;;4.17;2.00;;;;;;;;;;5036838;28;20205;-63
2021/09/13 12:01:56;;;;;;;1.90;1.80;;;;;;;;;;5036075;28;20207;-63
2021/09/13 12:04:25;;;;;;;2.43;2.00;;;;;;;;;;5033293;28;20222;-63
2021/09/13 12:07:14;;;;;;;1.90;1.80;;;;;;;;;;5034554;28;20206;-63
2021/09/13 12:09:45;;;;;;;2.13;1.80;;;;;;;;;;5033341;28;20235;-63
2021/09/13 12:12:14;;;;;;;2.20;1.90;;;;;;;;;;5034184;28;20204;-63
2021/09/13 12:14:42;;;;;;;2.40;2.20;;;;;;;;;;5035506;28;20665;-63
2021/09/13 12:17:11;;;;;;;3.77;2.30;;;;;;;;;;5035711;28;20245;-63
2021/09/13 12:19:41;;;;;;;2.20;1.90;;;;;;;;;;5036885;28;20758;-63
2021/09/13 12:22:10;;;;;;;4.70;2.30;;;;;;;;;;5033038;28;20689;-64
2021/09/13 12:24:40;;;;;;;3.17;1.73;;;;;;;;;;5036326;28;20250;-63
2021/09/13 12:27:20;;;;;;;1.80;1.63;;;;;;;;;;5035448;28;20200;-63
2021/09/13 12:29:55;;;;;;;1.90;1.70;;;;;;;;;;5036748;28;20212;-64
2021/09/13 12:32:24;;;;;;;9.63;3.70;;;;;;;;;;5039365;28;20696;-64
2021/09/13 12:34:57;;;;;;;2.13;1.83;;;;;;;;;;5039785;28;20235;-64
2021/09/13 12:37:29;;;;;;;4.50;2.57;;;;;;;;;;5040479;28;20410;-63
2021/09/13 12:40:16;;;;;;;2.07;1.57;;;;;;;;;;5033505;28;20204;-63
2021/09/13 12:42:54;;;;;;;2.93;2.10;;;;;;;;;;5038658;28;20293;-63
2021/09/13 12:45:22;;;;;;;4.90;2.17;;;;;;;;;;5039497;28;20634;-63
2021/09/13 12:47:51;;;;;;;4.50;2.23;;;;;;;;;;5040248;28;20671;-63
2021/09/13 12:50:27;;;;;;;3.90;2.33;;;;;;;;;;5039678;28;20208;-63
2021/09/13 12:52:55;;;;;;;2.97;2.17;;;;;;;;;;5038604;28;20217;-63
2021/09/13 12:55:23;;;;;;;2.73;2.10;;;;;;;;;;5039774;28;20277;-63
2021/09/13 12:57:53;;;;;;;2.00;1.80;;;;;;;;;;5037718;28;20201;-63
2021/09/13 13:00:21;;;;;;;2.03;1.93;;;;;;;;;;5037311;28;20212;-63
2021/09/13 13:03:04;;;;;;;1.80;1.67;;;;;;;;;;5039165;28;20664;-63
2021/09/13 13:05:33;;;;;;;2.43;2.20;;;;;;;;;;5034320;28;20717;-63
2021/09/13 13:08:02;;;;;;;2.57;1.90;;;;;;;;;;5037642;28;20223;-63
2021/09/13 13:10:31;;;;;;;1.80;1.70;;;;;;;;;;5039461;28;20241;-63
2021/09/13 13:13:01;;;;;;;3.90;1.80;;;;;;;;;;5036724;28;20235;-63
2021/09/13 13:15:29;;;;;;;2.67;1.90;;;;;;;;;;5039735;28;20238;-63
2021/09/13 13:18:18;;;;;;;2.53;1.93;;;;;;;;;;5039339;28;20228;-63
2021/09/13 13:20:46;;;;;;;1.60;1.50;;;;;;;;;;5038911;28;20660;-63
2021/09/13 13:23:14;;;;;;;2.43;1.70;;;;;;;;;;5039647;28;20238;-63
2021/09/13 13:25:42;;;;;;;2.20;2.00;;;;;;;;;;5038255;28;20226;-63
2021/09/13 13:28:12;;;;;;;2.03;1.60;;;;;;;;;;5037355;28;20202;-63
2021/09/13 13:30:40;;;;;;;2.73;2.03;;;;;;;;;;5038425;28;20207;-63
2021/09/13 13:33:08;;;;;;;1.93;1.60;;;;;;;;;;5039753;28;20293;-63
2021/09/13 13:35:36;;;;;;;16.53;5.10;;;;;;;;;;5038626;28;20267;-63
2021/09/13 13:38:05;;;;;;;14.77;4.50;;;;;;;;;;5039360;28;20293;-63
2021/09/13 13:40:33;;;;;;;6.00;3.33;;;;;;;;;;5038098;28;20643;-63
2021/09/13 13:43:02;;;;;;;3.63;1.90;;;;;;;;;;5034820;28;20635;-63
2021/09/13 13:45:31;;;;;;;3.05;1.92;;;;;;;;;;5039048;28;20310;-63
2021/09/13 13:47:59;;;;;;;2.10;1.75;;;;;;;;;;5039352;28;20217;-63
2021/09/13 13:50:28;;;;;;;8.33;3.97;;;;;;;;;;5038129;28;20572;-63
2021/09/13 13:52:56;;;;;;;6.72;2.88;;;;;;;;;;5038939;28;20295;-63
2021/09/13 13:55:24;;;;;;;9.95;3.80;;;;;;;;;;5039253;28;20239;-63
2021/09/13 13:57:52;;;;;;;3.42;2.17;;;;;;;;;;5039126;28;20206;-63
2021/09/13 14:00:22;;;;;;;17.35;5.15;;;;;;;;;;5039556;28;20243;-63
2021/09/13 14:02:51;;;;;;;5.78;1.67;;;;;;;;;;5038257;28;20200;-63
2021/09/13 14:05:20;;;;;;;12.18;3.60;;;;;;;;;;5030932;28;20224;-63
2021/09/13 14:07:48;;;;;;;1.85;1.73;;;;;;;;;;5037884;28;20222;-64
2021/09/13 14:10:16;;;;;;;3.03;1.70;;;;;;;;;;5037887;28;20760;-63
2021/09/13 14:12:44;;;;;;;2.20;1.77;;;;;;;;;;5038714;28;20728;-63
2021/09/13 14:15:12;;;;;;;1.95;1.85;;;;;;;;;;5037320;28;20361;-63
2021/09/13 14:17:40;;;;;;;1.70;1.60;;;;;;;;;;5035123;28;20228;-63
2021/09/13 14:20:10;;;;;;;2.08;1.88;;;;;;;;;;5036097;28;20215;-63
2021/09/13 14:22:38;;;;;;;1.42;1.30;;;;;;;;;;5034902;28;20285;-63
2021/09/13 14:25:07;;;;;;;3.08;1.63;;;;;;;;;;5037799;28;20223;-63
2021/09/13 14:27:35;;;;;;;4.38;1.85;;;;;;;;;;5037421;28;20287;-63
2021/09/13 14:30:04;;;;;;;2.10;2.00;;;;;;;;;;5037284;28;20250;-64
2021/09/13 14:32:32;;;;;;;1.70;1.60;;;;;;;;;;5037769;28;20207;-63
2021/09/13 14:35:00;;;;;;;1.83;1.55;;;;;;;;;;5037684;28;20235;-63
2021/09/13 14:37:29;;;;;;;2.00;1.80;;;;;;;;;;5037102;28;20209;-64
2021/09/13 14:39:57;;;;;;;2.03;1.83;;;;;;;;;;5036835;28;20281;-63
2021/09/13 14:42:25;;;;;;;2.92;1.70;;;;;;;;;;5037624;28;20204;-63
2021/09/13 14:44:54;;;;;;;1.90;1.70;;;;;;;;;;5037920;28;20700;-63
2021/09/13 14:47:22;;;;;;;1.73;1.63;;;;;;;;;;5037873;28;20221;-63
2021/09/13 14:49:50;;;;;;;2.10;1.90;;;;;;;;;;5038042;28;20206;-63
2021/09/13 14:52:21;;;;;;;3.27;1.70;;;;;;;;;;5037750;28;20291;-63
2021/09/13 14:54:51;;;;;;;3.40;2.00;;;;;;;;;;5036343;28;20683;-64
2021/09/13 14:57:19;;;;;;;7.03;2.53;;;;;;;;;;5036968;28;20204;-64
2021/09/13 14:59:46;;;;;;;3.60;2.03;;;;;;;;;;5037134;28;20204;-63